Have a Safe July 4th! 

Flight Track Log - Related Links

Times and Time Zones

All times are in EDT time to prevent confusion due to time zone crossing. See the GJS3710 flight status page for this flight to view local times or setup timezone preferences in your user account.

Time Position Orientation Groundspeed Altitude Reporting Facility
EDT Latitude Longitude Course Direction KTS MPH feet Rate Location/Type
Fri 07:55:09 PM 42.0000 -87.8833 66° East 143 165 1,800  Level Chicago TRACON
Fri 07:56:09 PM 42.0167 -87.8167 71° East 207 238 3,400 1,850 Climbing Chicago TRACON
Fri 07:57:09 PM 42.0167 -87.7167 90° East 266 306 5,500 2,000 Climbing Chicago TRACON
Fri 07:57:24 PM 42.0128 -87.7097 127° Southeast 222 255 5,900 2,260 Climbing Chicago Center
Fri 07:58:00 PM 42.1659 -87.3523 66° East  Level FlightAware Approximate
Fri 07:58:26 PM 42.0200 -87.5994 85° East 283 326 8,400  Level Chicago Center
Fri 07:59:00 PM 42.2133 -87.2102 66° East  Level FlightAware Approximate
Fri 07:59:28 PM 42.0647 -87.5061 57° Northeast 299 344 11,200  Level Chicago Center
Fri 08:00:00 PM 42.2607 -87.0679 66° East  Level FlightAware Approximate
Fri 08:00:30 PM 42.1169 -87.3886 59° Northeast 308 354 13,300  Level Chicago Center
Fri 08:01:32 PM 42.1236 -87.2536 86° East 356 410 14,800 1,645 Climbing Chicago Center
Fri 08:02:34 PM 42.1322 -87.1111 85° East 377 434 16,700 1,742 Climbing Chicago Center
Fri 08:03:36 PM 42.1333 -86.9639 89° East 393 452 18,400 1,645 Climbing Chicago Center
Fri 08:04:38 PM 42.1336 -86.8136 90° East 404 465 20,100 1,742 Climbing Chicago Center
Fri 08:05:40 PM 42.1344 -86.6333 90° East 414 476 22,000 1,694 Climbing Chicago Center
Fri 08:06:42 PM 42.1347 -86.4758 90° East 420 483 23,600 1,452 Climbing Chicago Center
Fri 08:07:44 PM 42.1347 -86.3156 90° East 425 489 25,000 1,258 Climbing Chicago Center
Fri 08:08:46 PM 42.1342 -86.1517 90° East 435 501 26,200 1,258 Climbing Chicago Center
Fri 08:09:48 PM 42.1222 -85.9622 95° East 451 519 27,600 1,258 Climbing Chicago Center
Fri 08:10:50 PM 42.1086 -85.7933 96° East 455 524 28,800 1,016 Climbing Chicago Center
Fri 08:11:52 PM 42.0969 -85.6200 95° East 463 533 29,700 968 Climbing Chicago Center
Fri 08:12:54 PM 42.0850 -85.4447 95° East 473 544 30,800 1,016 Climbing Chicago Center
Fri 08:13:56 PM 42.0731 -85.2689 95° East 478 550 31,800 919 Climbing Chicago Center
Fri 08:14:58 PM 42.0586 -85.0536 95° East 483 556 32,700 774 Climbing Chicago Center
Fri 08:16:00 PM 42.0578 -84.8775 90° East 476 548 33,400 581 Climbing Chicago Center
Fri 08:17:02 PM 42.0758 -84.7033 82° East 473 544 33,900 581 Climbing Chicago Center
Fri 08:18:04 PM 42.0939 -84.5269 82° East 476 548 34,600 743 Climbing Chicago Center
Fri 08:18:55 PM 42.1125 -84.3594 81° East 475 547 35,300 757 Climbing Cleveland Center
Fri 08:19:55 PM 42.1239 -84.1978 85° East 475 547 36,000 600 Climbing Cleveland Center
Fri 08:20:55 PM 42.1419 -84.0194 82° East 480 552 36,500 500 Climbing Cleveland Center
Fri 08:21:55 PM 42.1575 -83.8436 83° East 480 552 37,000 500 Climbing Cleveland Center
Fri 08:22:55 PM 42.1731 -83.6625 83° East 480 552 37,500 500 Climbing Cleveland Center
Fri 08:23:55 PM 42.1908 -83.4586 83° East 487 560 38,000 500 Climbing Cleveland Center
Fri 08:24:55 PM 42.2097 -83.2772 82° East 489 563 38,500 500 Climbing Cleveland Center
Fri 08:25:55 PM 42.2244 -83.0900 84° East 494 568 39,000 250 Climbing Cleveland Center
Fri 08:26:55 PM 42.2386 -82.9111 84° East 494 568 39,000  Level Cleveland Center
Fri 08:27:55 PM 42.2567 -82.7322 82° East 489 563 39,000  Level Cleveland Center
Fri 08:28:55 PM 42.2683 -82.5528 85° East 479 551 39,000  Level Cleveland Center
Fri 08:29:55 PM 42.2836 -82.3794 83° East 479 551 39,000  Level Cleveland Center
Fri 08:30:55 PM 42.2986 -82.2000 83° East 479 551 39,000  Level Cleveland Center
Fri 08:31:55 PM 42.3114 -82.0433 84° East 479 551 39,000  Level Cleveland Center
Fri 08:32:55 PM 42.3258 -81.8667 84° East 479 551 39,000  Level Cleveland Center
Fri 08:33:55 PM 42.3383 -81.6814 85° East 479 551 39,000  Level Cleveland Center
Fri 08:34:55 PM 42.3525 -81.4878 84° East 479 551 39,000  Level Cleveland Center
Fri 08:35:55 PM 42.3661 -81.3111 84° East 479 551 39,000  Level Cleveland Center
Fri 08:36:55 PM 42.3797 -81.1314 84° East 479 551 39,000  Level Cleveland Center
Fri 08:37:55 PM 42.3908 -80.9542 85° East 479 551 39,000  Level Cleveland Center
Fri 08:38:55 PM 42.4039 -80.7772 84° East 479 551 39,000  Level Cleveland Center
Fri 08:39:55 PM 42.4144 -80.5972 85° East 479 551 39,000  Level Cleveland Center
Fri 08:40:55 PM 42.4247 -80.4200 85° East 473 544 39,000  Level Cleveland Center
Fri 08:41:55 PM 42.4347 -80.2625 85° East 473 544 39,000  Level Cleveland Center
Fri 08:42:55 PM 42.4444 -80.0853 86° East 473 544 39,000  Level Cleveland Center
Fri 08:43:55 PM 42.4581 -79.8908 85° East 473 544 39,000  Level Cleveland Center
Fri 08:44:55 PM 42.4656 -79.7331 86° East 468 539 39,000  Level Cleveland Center
Fri 08:45:55 PM 42.4808 -79.5614 83° East 463 533 39,000 -200 Level Cleveland Center
Fri 08:46:55 PM 42.4875 -79.3867 87° East 477 549 38,600 -700 Descending Cleveland Center
Fri 08:47:55 PM 42.4939 -79.2119 87° East 467 537 37,600 -1,050 Descending Cleveland Center
Fri 08:48:55 PM 42.5083 -79.0369 84° East 457 526 36,500 -1,050 Descending Cleveland Center
Fri 08:49:55 PM 42.5183 -78.8706 85° East 457 526 35,500 -1,050 Descending Cleveland Center
Fri 08:50:55 PM 42.5303 -78.6956 85° East 457 526 34,400 -1,200 Descending Cleveland Center
Fri 08:51:55 PM 42.5439 -78.5175 84° East 468 539 33,100 -1,000 Descending Cleveland Center
Fri 08:52:55 PM 42.5531 -78.3453 86° East 468 539 32,400 -850 Descending Cleveland Center
Fri 08:53:55 PM 42.5664 -78.1756 84° East 460 529 31,400 -1,000 Descending Cleveland Center
Fri 08:54:55 PM 42.5753 -78.0006 86° East 455 524 30,400 -1,000 Descending Cleveland Center
Fri 08:55:55 PM 42.5836 -77.8281 86° East 461 531 29,400 -700 Descending Cleveland Center
Fri 08:56:55 PM 42.5958 -77.6497 85° East 466 536 29,000 -200 Descending Cleveland Center
Fri 08:57:55 PM 42.6061 -77.4800 85° East 461 531 29,000  Level Cleveland Center
Fri 08:58:55 PM 42.6153 -77.2875 86° East 461 531 29,000  Level Cleveland Center
Fri 08:59:55 PM 42.6250 -77.1150 86° East 461 531 29,000  Level Cleveland Center
Fri 09:00:15 PM 42.6267 -77.0772 87° East 464 534 29,000  Level Boston Center
Fri 09:01:15 PM 42.6358 -76.9028 86° East 464 534 29,000  Level Boston Center
Fri 09:02:15 PM 42.6447 -76.7283 86° East 464 534 29,000  Level Boston Center
Fri 09:03:15 PM 42.6531 -76.5539 86° East 459 528 29,000 -100 Level Boston Center
Fri 09:04:15 PM 42.6614 -76.3792 86° East 459 528 28,800 -1,000 Descending Boston Center
Fri 09:05:15 PM 42.6719 -76.1906 86° East 459 528 27,000 -1,750 Descending Boston Center
Fri 09:06:15 PM 42.6756 -76.0186 88° East 459 528 25,300 -1,700 Descending Boston Center
Fri 09:07:15 PM 42.6844 -75.8581 86° East 448 516 23,600 -1,650 Descending Boston Center
Fri 09:08:15 PM 42.6917 -75.6889 87° East 443 510 22,000 -1,550 Descending Boston Center
Fri 09:09:15 PM 42.6961 -75.5253 88° East 437 503 20,500 -1,550 Descending Boston Center
Fri 09:10:15 PM 42.7047 -75.3617 86° East 432 497 18,900 -1,600 Descending Boston Center
Fri 09:11:15 PM 42.7089 -75.1981 88° East 432 497 17,300 -1,600 Descending Boston Center
Fri 09:12:15 PM 42.7144 -75.0428 87° East 432 497 15,700 -1,677 Descending Boston Center
Fri 09:12:48 PM 42.7164 -74.9581 88° East 415 478 14,700 -1,500 Descending Boston Center
Fri 09:13:15 PM 42.7178 -74.8903 88° East 409 471 14,200 -1,479 Descending Boston Center
Fri 09:14:01 PM 42.7222 -74.7775 87° East 391 450 12,900 -1,358 Descending Boston Center
Fri 09:15:01 PM 42.7253 -74.6278 88° East 385 443 11,800 -942 Descending Boston Center
Fri 09:16:02 PM 42.7319 -74.4894 86° East 383 441 11,000 -738 Descending Boston Center
Fri 09:17:03 PM 42.7072 -74.3642 105° East 321 369 10,300 -992 Descending Boston Center
Fri 09:18:03 PM 42.6775 -74.2617 111° Southeast 282 325 9,000 -1,388 Descending Boston Center
Fri 09:19:04 PM 42.6500 -74.1619 111° Southeast 279 321 7,500 -1,587 Descending Boston Center
Fri 09:20:04 PM 42.6244 -74.0569 108° East 271 312 5,800 -1,587 Descending Boston Center
Fri 09:21:05 PM 42.5964 -73.9631 112° Southeast 270 311 4,300 -1,230 Descending Boston Center
Fri 09:22:06 PM 42.5747 -73.8781 109° East 238 274 3,300 -923 Descending Boston Center
Fri 09:23:15 PM 42.5925 -73.7908 74° East 200 230 2,300 -645 Descending Boston Center
Fri 09:24:07 PM 42.6422 -73.8033 350° North 159 183 2,000 -346 Descending Boston Center

Login

Don't have an account? Register now (free) for customized features, flight alerts, and more!